Time;durP1;ratioP1;P1;durP2;ratioP2;P2;SDS_P1;SDS_P2;PMS_P1;PMS_P2;Temp;Humidity;BMP_temperature;BMP_pressure;BME280_temperature;BME280_humidity;BME280_pressure;Samples;Min_cycle;Max_cycle;Signal;HPM_P1;HPM_P2
2023/12/22 00:00:13;;;;;;;0.50;0.50;;;;;;;;;;5036849;28;20030;-82
2023/12/22 00:02:38;;;;;;;0.50;0.50;;;;;;;;;;5037416;28;20029;-83
2023/12/22 00:05:04;;;;;;;0.70;0.70;;;;;;;;;;5036612;28;20038;-83
2023/12/22 00:07:29;;;;;;;0.30;0.30;;;;;;;;;;5036197;28;20396;-83
2023/12/22 00:09:54;;;;;;;0.60;0.60;;;;;;;;;;5015995;28;20029;-82
2023/12/22 00:12:20;;;;;;;1.20;0.65;;;;;;;;;;5036085;28;20695;-84
2023/12/22 00:14:45;;;;;;;0.73;0.73;;;;;;;;;;5036279;28;20021;-84
2023/12/22 00:17:10;;;;;;;1.52;0.65;;;;;;;;;;5035347;28;20021;-82
2023/12/22 00:19:35;;;;;;;0.77;0.60;;;;;;;;;;5036325;28;20041;-83
2023/12/22 00:22:03;;;;;;;1.42;0.75;;;;;;;;;;5035810;28;20039;-83
2023/12/22 00:24:28;;;;;;;1.65;0.68;;;;;;;;;;5035892;28;20112;-81
2023/12/22 00:26:53;;;;;;;0.47;0.47;;;;;;;;;;5035904;28;20478;-82
2023/12/22 00:29:18;;;;;;;0.40;0.40;;;;;;;;;;5035759;28;20029;-83
2023/12/22 00:31:44;;;;;;;4.90;1.15;;;;;;;;;;5033761;28;20393;-83
2023/12/22 00:34:09;;;;;;;0.60;0.60;;;;;;;;;;5011715;28;20391;-83
2023/12/22 00:36:34;;;;;;;0.80;0.80;;;;;;;;;;4998046;28;20392;-83
2023/12/22 00:38:59;;;;;;;1.10;0.80;;;;;;;;;;5023939;28;20025;-83
2023/12/22 00:41:24;;;;;;;1.73;0.60;;;;;;;;;;5035358;28;20034;-85
2023/12/22 00:43:50;;;;;;;0.60;0.60;;;;;;;;;;5027188;28;20030;-84
2023/12/22 00:46:15;;;;;;;0.75;0.75;;;;;;;;;;5035517;28;20517;-84
2023/12/22 00:48:40;;;;;;;1.90;0.98;;;;;;;;;;5034873;28;20466;-83
2023/12/22 00:51:07;;;;;;;1.55;0.57;;;;;;;;;;5035727;28;20367;-84
2023/12/22 00:53:32;;;;;;;2.15;1.10;;;;;;;;;;5035922;28;20108;-83
2023/12/22 00:55:59;;;;;;;0.82;0.82;;;;;;;;;;5030536;28;20049;-85
2023/12/22 00:58:24;;;;;;;0.80;0.80;;;;;;;;;;5022765;28;20033;-84
2023/12/22 01:00:49;;;;;;;0.70;0.68;;;;;;;;;;5004713;28;20402;-82
2023/12/22 01:03:15;;;;;;;0.85;0.50;;;;;;;;;;4997746;28;20088;-84
2023/12/22 01:05:40;;;;;;;3.55;0.80;;;;;;;;;;4997908;28;20026;-82
2023/12/22 01:08:05;;;;;;;0.90;0.60;;;;;;;;;;5019743;28;20029;-84
2023/12/22 01:10:31;;;;;;;0.82;0.73;;;;;;;;;;5035126;28;20040;-83
2023/12/22 01:12:56;;;;;;;0.70;0.70;;;;;;;;;;5034932;28;20052;-83
2023/12/22 01:15:22;;;;;;;2.50;0.63;;;;;;;;;;5035102;28;20489;-83
2023/12/22 01:17:47;;;;;;;0.77;0.60;;;;;;;;;;5035614;28;20139;-83
2023/12/22 01:20:13;;;;;;;2.47;1.35;;;;;;;;;;5035596;28;20064;-83
2023/12/22 01:22:38;;;;;;;3.67;0.60;;;;;;;;;;5035063;28;20076;-83
2023/12/22 01:25:05;;;;;;;1.77;0.63;;;;;;;;;;5035562;28;20040;-84
2023/12/22 01:27:30;;;;;;;0.28;0.28;;;;;;;;;;5036590;28;20040;-86
2023/12/22 01:29:56;;;;;;;0.70;0.70;;;;;;;;;;5005091;28;20493;-84
2023/12/22 01:32:21;;;;;;;1.35;0.60;;;;;;;;;;5034998;28;20033;-84
2023/12/22 01:34:46;;;;;;;0.28;0.28;;;;;;;;;;5021692;28;20498;-83
2023/12/22 01:37:11;;;;;;;0.20;0.20;;;;;;;;;;5021457;28;20032;-84
2023/12/22 01:39:37;;;;;;;0.90;0.50;;;;;;;;;;5036788;28;20041;-81
2023/12/22 01:42:02;;;;;;;1.20;0.60;;;;;;;;;;5030055;28;20386;-83
2023/12/22 01:44:28;;;;;;;1.52;0.52;;;;;;;;;;5029029;28;20240;-84
2023/12/22 01:46:53;;;;;;;0.75;0.70;;;;;;;;;;5034186;28;20121;-82
2023/12/22 01:49:21;;;;;;;0.38;0.38;;;;;;;;;;5028612;28;20038;-85
2023/12/22 01:51:46;;;;;;;0.40;0.40;;;;;;;;;;5029212;28;20061;-84
2023/12/22 01:54:15;;;;;;;0.70;0.70;;;;;;;;;;5034390;28;20036;-84
2023/12/22 01:56:41;;;;;;;0.60;0.60;;;;;;;;;;5029805;28;20053;-84
2023/12/22 01:59:06;;;;;;;0.90;0.63;;;;;;;;;;5011885;28;20065;-83
2023/12/22 02:01:32;;;;;;;0.75;0.75;;;;;;;;;;5005228;28;20033;-84
2023/12/22 02:03:58;;;;;;;2.55;0.73;;;;;;;;;;5019780;28;20034;-81
2023/12/22 02:06:24;;;;;;;1.20;0.80;;;;;;;;;;5021741;28;20100;-83
2023/12/22 02:08:50;;;;;;;1.67;0.77;;;;;;;;;;5018343;28;20133;-81
2023/12/22 02:11:16;;;;;;;0.73;0.60;;;;;;;;;;5033646;28;20033;-82
2023/12/22 02:13:42;;;;;;;0.60;0.60;;;;;;;;;;5033182;28;20064;-82
2023/12/22 02:16:24;;;;;;;1.35;0.90;;;;;;;;;;5016004;28;20037;-82
2023/12/22 02:18:52;;;;;;;1.23;0.70;;;;;;;;;;5033771;28;20083;-81
2023/12/22 02:21:17;;;;;;;2.38;0.60;;;;;;;;;;5027316;28;20037;-81
2023/12/22 02:23:43;;;;;;;0.65;0.65;;;;;;;;;;4998550;28;20049;-82
2023/12/22 02:26:28;;;;;;;1.23;0.75;;;;;;;;;;5020843;28;20033;-82
2023/12/22 02:28:55;;;;;;;;;;;;;;;;;;5031219;28;20048;-82
2023/12/22 02:31:37;;;;;;;1.30;0.82;;;;;;;;;;5034007;28;20172;-81
2023/12/22 02:34:07;;;;;;;2.22;0.80;;;;;;;;;;5033946;28;20038;-83
2023/12/22 02:36:36;;;;;;;2.35;0.80;;;;;;;;;;5033738;28;20458;-82
2023/12/22 02:39:02;;;;;;;1.85;0.90;;;;;;;;;;5034197;28;20034;-82
2023/12/22 02:41:28;;;;;;;2.45;0.98;;;;;;;;;;5034103;28;20038;-82
2023/12/22 02:43:53;;;;;;;1.60;0.77;;;;;;;;;;5033466;28;20092;-82
2023/12/22 02:46:18;;;;;;;0.57;0.55;;;;;;;;;;5034004;28;20042;-83
2023/12/22 02:48:43;;;;;;;1.63;0.88;;;;;;;;;;5032899;28;20033;-81
2023/12/22 02:51:10;;;;;;;3.60;0.77;;;;;;;;;;5032933;28;20037;-83
2023/12/22 02:53:35;;;;;;;3.47;1.30;;;;;;;;;;5034001;28;20022;-83
2023/12/22 02:56:00;;;;;;;1.50;1.10;;;;;;;;;;5011692;28;20030;-84
2023/12/22 02:58:26;;;;;;;1.42;0.80;;;;;;;;;;5016418;28;20397;-81
2023/12/22 03:00:51;;;;;;;2.97;0.80;;;;;;;;;;5028823;28;20034;-83
2023/12/22 03:03:16;;;;;;;0.52;0.52;;;;;;;;;;5027581;28;20041;-83
2023/12/22 03:05:41;;;;;;;2.03;0.70;;;;;;;;;;5018746;28;20091;-82
2023/12/22 03:08:07;;;;;;;0.52;0.52;;;;;;;;;;5016969;28;20502;-82
2023/12/22 03:10:32;;;;;;;0.55;0.55;;;;;;;;;;5016924;28;20033;-81
2023/12/22 03:12:57;;;;;;;0.68;0.50;;;;;;;;;;5022360;28;20483;-82
2023/12/22 03:15:22;;;;;;;2.30;0.70;;;;;;;;;;5013833;28;20108;-82
2023/12/22 03:17:48;;;;;;;0.65;0.65;;;;;;;;;;5014055;28;20084;-82
2023/12/22 03:20:13;;;;;;;0.70;0.70;;;;;;;;;;5013208;28;20126;-81
2023/12/22 03:22:38;;;;;;;2.55;0.60;;;;;;;;;;5013595;28;20038;-83
2023/12/22 03:25:04;;;;;;;1.42;0.60;;;;;;;;;;5016946;28;20466;-82
2023/12/22 03:27:29;;;;;;;0.57;0.55;;;;;;;;;;5016833;28;20034;-82
2023/12/22 03:29:54;;;;;;;0.60;0.60;;;;;;;;;;5017751;28;20171;-82
2023/12/22 03:32:19;;;;;;;1.35;0.82;;;;;;;;;;5017342;28;20030;-81
2023/12/22 03:34:45;;;;;;;0.63;0.60;;;;;;;;;;4999621;28;20045;-84
2023/12/22 03:37:10;;;;;;;0.57;0.57;;;;;;;;;;5017204;28;20096;-84
2023/12/22 03:39:35;;;;;;;0.50;0.50;;;;;;;;;;5017275;28;20065;-84
2023/12/22 03:42:00;;;;;;;0.40;0.40;;;;;;;;;;5018470;28;20044;-82
2023/12/22 03:44:26;;;;;;;0.52;0.52;;;;;;;;;;5031217;28;20044;-82
2023/12/22 03:46:51;;;;;;;0.60;0.60;;;;;;;;;;5036736;28;20072;-84
2023/12/22 03:49:17;;;;;;;0.22;0.22;;;;;;;;;;5018295;28;20121;-83
2023/12/22 03:51:42;;;;;;;1.38;0.63;;;;;;;;;;5036297;28;20083;-82
2023/12/22 03:54:08;;;;;;;0.30;0.30;;;;;;;;;;5037027;28;20396;-82
2023/12/22 03:56:33;;;;;;;0.77;0.40;;;;;;;;;;5037786;28;20040;-82
2023/12/22 03:58:58;;;;;;;0.30;0.30;;;;;;;;;;5038164;28;20053;-80
2023/12/22 04:01:24;;;;;;;1.85;0.45;;;;;;;;;;5040053;28;20045;-82
2023/12/22 04:03:49;;;;;;;1.20;0.80;;;;;;;;;;5037071;28;20022;-81
2023/12/22 04:06:14;;;;;;;0.85;0.80;;;;;;;;;;5032236;28;20485;-84
2023/12/22 04:08:40;;;;;;;3.20;0.90;;;;;;;;;;5026702;28;20076;-84
2023/12/22 04:11:05;;;;;;;1.75;0.90;;;;;;;;;;5033734;28;20104;-84
2023/12/22 04:13:30;;;;;;;2.53;0.60;;;;;;;;;;5025820;28;20042;-82
2023/12/22 04:15:56;;;;;;;2.58;0.80;;;;;;;;;;5029693;28;20033;-82
2023/12/22 04:18:21;;;;;;;1.27;1.17;;;;;;;;;;5023728;28;20101;-82
2023/12/22 04:20:46;;;;;;;1.40;0.70;;;;;;;;;;5018982;28;20022;-83
2023/12/22 04:23:12;;;;;;;1.92;0.60;;;;;;;;;;5030391;28;20038;-84
2023/12/22 04:25:37;;;;;;;1.52;0.90;;;;;;;;;;5030549;28;20033;-83
2023/12/22 04:28:03;;;;;;;0.82;0.65;;;;;;;;;;5032962;28;20041;-83
2023/12/22 04:30:28;;;;;;;2.88;1.20;;;;;;;;;;5034397;28;20033;-83
2023/12/22 04:32:53;;;;;;;0.60;0.60;;;;;;;;;;5013548;28;20024;-84
2023/12/22 04:35:19;;;;;;;1.45;0.77;;;;;;;;;;5020927;28;20128;-81
2023/12/22 04:37:44;;;;;;;0.52;0.52;;;;;;;;;;5030031;28;20071;-80
2023/12/22 04:40:10;;;;;;;1.75;0.70;;;;;;;;;;5030248;28;20516;-83
2023/12/22 04:42:35;;;;;;;1.75;0.80;;;;;;;;;;5024500;28;20069;-82
2023/12/22 04:45:00;;;;;;;2.92;0.85;;;;;;;;;;5031181;28;20024;-82
2023/12/22 04:47:25;;;;;;;0.60;0.60;;;;;;;;;;5029896;28;20404;-83
2023/12/22 04:49:51;;;;;;;2.58;0.70;;;;;;;;;;5035237;28;20124;-82
2023/12/22 04:52:16;;;;;;;3.72;1.10;;;;;;;;;;5013324;28;20632;-83
2023/12/22 04:54:41;;;;;;;1.17;1.00;;;;;;;;;;5029139;28;20508;-82
2023/12/22 04:57:06;;;;;;;0.70;0.57;;;;;;;;;;5020322;28;20017;-80
2023/12/22 04:59:32;;;;;;;1.27;0.70;;;;;;;;;;5032295;28;20417;-83
2023/12/22 05:01:57;;;;;;;0.50;0.50;;;;;;;;;;5025144;28;20041;-83
2023/12/22 05:04:23;;;;;;;2.28;0.63;;;;;;;;;;5036182;28;20489;-83
2023/12/22 05:06:48;;;;;;;1.98;0.70;;;;;;;;;;5027296;28;20060;-81
2023/12/22 05:09:14;;;;;;;0.60;0.60;;;;;;;;;;5025816;28;20025;-84
2023/12/22 05:11:39;;;;;;;1.65;1.00;;;;;;;;;;5034572;28;20023;-84
2023/12/22 05:14:04;;;;;;;1.02;0.80;;;;;;;;;;5034962;28;20034;-84
2023/12/22 05:16:31;;;;;;;0.85;0.68;;;;;;;;;;5035157;28;20029;-83
2023/12/22 05:18:57;;;;;;;1.33;0.77;;;;;;;;;;5037104;28;20033;-84
2023/12/22 05:21:23;;;;;;;2.10;0.63;;;;;;;;;;5012960;28;20422;-83
2023/12/22 05:23:48;;;;;;;0.77;0.70;;;;;;;;;;5019437;28;20039;-79
2023/12/22 05:26:18;;;;;;;0.60;0.60;;;;;;;;;;5028389;28;20474;-84
2023/12/22 05:28:43;;;;;;;1.10;0.85;;;;;;;;;;5032014;28;20033;-84
2023/12/22 05:31:08;;;;;;;0.88;0.60;;;;;;;;;;5031430;28;20091;-83
2023/12/22 05:33:34;;;;;;;2.40;0.75;;;;;;;;;;5029586;28;20124;-84
2023/12/22 05:35:59;;;;;;;1.05;0.90;;;;;;;;;;5027543;28;20040;-82
2023/12/22 05:38:24;;;;;;;1.13;0.85;;;;;;;;;;5031327;28;20080;-82
2023/12/22 05:40:50;;;;;;;1.23;0.75;;;;;;;;;;5029606;28;20037;-82
2023/12/22 05:43:15;;;;;;;2.75;1.10;;;;;;;;;;5028019;28;20096;-82
2023/12/22 05:45:40;;;;;;;0.95;0.85;;;;;;;;;;5037222;28;20026;-83
2023/12/22 05:48:07;;;;;;;1.48;0.88;;;;;;;;;;5028351;28;20021;-83
2023/12/22 05:50:32;;;;;;;3.58;1.23;;;;;;;;;;5035744;28;20024;-83
2023/12/22 05:52:57;;;;;;;0.85;0.73;;;;;;;;;;5029909;28;20089;-85
2023/12/22 05:55:23;;;;;;;2.25;0.90;;;;;;;;;;5034629;28;20030;-85
2023/12/22 05:57:48;;;;;;;5.53;1.67;;;;;;;;;;5030962;28;20140;-83
2023/12/22 06:00:15;;;;;;;2.60;1.10;;;;;;;;;;5020879;28;20037;-84
2023/12/22 06:02:40;;;;;;;1.20;0.80;;;;;;;;;;5032050;28;20018;-84
2023/12/22 06:05:06;;;;;;;1.25;0.75;;;;;;;;;;5028390;28;20044;-83
2023/12/22 06:07:31;;;;;;;3.90;1.75;;;;;;;;;;5005762;28;20030;-83
2023/12/22 06:09:57;;;;;;;1.55;1.10;;;;;;;;;;5028705;28;20030;-84
2023/12/22 06:12:22;;;;;;;4.20;1.00;;;;;;;;;;5023050;28;20145;-82
2023/12/22 06:14:47;;;;;;;1.65;0.93;;;;;;;;;;5031705;28;20036;-82
2023/12/22 06:17:12;;;;;;;1.88;0.80;;;;;;;;;;5009848;28;20120;-84
2023/12/22 06:19:38;;;;;;;4.68;0.80;;;;;;;;;;5019767;28;20080;-82
2023/12/22 06:22:03;;;;;;;0.98;0.88;;;;;;;;;;5008682;28;20484;-81
2023/12/22 06:24:29;;;;;;;4.28;1.08;;;;;;;;;;5013697;28;20041;-82
2023/12/22 06:26:54;;;;;;;2.17;1.00;;;;;;;;;;5026460;28;20354;-84
2023/12/22 06:29:19;;;;;;;2.00;0.70;;;;;;;;;;5035041;28;20033;-84
2023/12/22 06:31:45;;;;;;;3.30;1.23;;;;;;;;;;5030173;28;20033;-83
2023/12/22 06:34:10;;;;;;;1.00;0.90;;;;;;;;;;5007972;28;20410;-83
2023/12/22 06:36:35;;;;;;;1.52;0.90;;;;;;;;;;5013389;28;20057;-80
2023/12/22 06:39:01;;;;;;;5.10;1.35;;;;;;;;;;5031089;28;20200;-82
2023/12/22 06:41:30;;;;;;;3.95;1.42;;;;;;;;;;5035195;28;20033;-82
2023/12/22 06:43:57;;;;;;;1.17;0.80;;;;;;;;;;5031316;28;20044;-83
2023/12/22 06:46:25;;;;;;;2.05;0.75;;;;;;;;;;5031137;28;20045;-84
2023/12/22 06:48:51;;;;;;;6.50;1.15;;;;;;;;;;5023485;28;20034;-83
2023/12/22 06:51:37;;;;;;;1.65;0.80;;;;;;;;;;5033237;28;20108;-83
2023/12/22 06:54:04;;;;;;;7.32;1.23;;;;;;;;;;5034445;28;20092;-81
2023/12/22 06:56:31;;;;;;;2.58;0.90;;;;;;;;;;5030064;28;20030;-81
2023/12/22 06:58:57;;;;;;;1.08;0.93;;;;;;;;;;5038005;28;20463;-83
2023/12/22 07:01:28;;;;;;;4.72;1.17;;;;;;;;;;5020273;28;20090;-83
2023/12/22 07:03:54;;;;;;;5.07;1.23;;;;;;;;;;5034572;28;20030;-82
2023/12/22 07:06:20;;;;;;;1.48;0.95;;;;;;;;;;5023007;28;20029;-85
2023/12/22 07:09:12;;;;;;;4.88;1.17;;;;;;;;;;5033592;28;20013;-81
2023/12/22 07:11:50;;;;;;;3.58;1.27;;;;;;;;;;5037761;28;20379;-81
2023/12/22 07:14:15;;;;;;;2.88;1.02;;;;;;;;;;5014193;28;20033;-83
2023/12/22 07:16:44;;;;;;;3.35;1.15;;;;;;;;;;5028892;28;20167;-84
2023/12/22 07:19:13;;;;;;;5.78;1.35;;;;;;;;;;5029888;28;20413;-84
2023/12/22 07:21:39;;;;;;;2.28;1.30;;;;;;;;;;5041064;28;20045;-83
2023/12/22 07:24:05;;;;;;;3.38;1.20;;;;;;;;;;5034709;28;20026;-83
2023/12/22 07:26:30;;;;;;;1.30;0.93;;;;;;;;;;5034033;28;20514;-81
2023/12/22 07:28:56;;;;;;;3.50;1.13;;;;;;;;;;5028460;28;20038;-83
2023/12/22 07:31:22;;;;;;;6.72;1.70;;;;;;;;;;5021689;28;20436;-83
2023/12/22 07:33:47;;;;;;;2.30;1.02;;;;;;;;;;5039006;28;20030;-82
2023/12/22 07:36:13;;;;;;;0.95;0.80;;;;;;;;;;5029162;28;20026;-84
2023/12/22 07:38:41;;;;;;;2.13;1.02;;;;;;;;;;5019309;28;20168;-82
2023/12/22 07:41:07;;;;;;;0.95;0.80;;;;;;;;;;5018893;28;20125;-84
2023/12/22 07:43:33;;;;;;;2.95;1.00;;;;;;;;;;5021196;28;20041;-83
2023/12/22 07:45:58;;;;;;;1.85;0.90;;;;;;;;;;5021368;28;20037;-83
2023/12/22 07:48:26;;;;;;;4.95;1.17;;;;;;;;;;5045936;28;20052;-82
2023/12/22 07:50:51;;;;;;;1.55;1.02;;;;;;;;;;5044368;28;20271;-85
2023/12/22 07:53:17;;;;;;;1.75;1.20;;;;;;;;;;5039044;28;20038;-85
2023/12/22 07:55:46;;;;;;;2.13;0.73;;;;;;;;;;5037460;28;20497;-84
2023/12/22 07:58:12;;;;;;;1.40;0.80;;;;;;;;;;5039118;28;20076;-85
2023/12/22 08:00:37;;;;;;;2.45;0.60;;;;;;;;;;5007087;28;20038;-83
2023/12/22 08:03:03;;;;;;;4.22;0.90;;;;;;;;;;5020244;28;20017;-84
2023/12/22 08:05:29;;;;;;;1.38;0.60;;;;;;;;;;5002890;28;20319;-81
2023/12/22 08:07:55;;;;;;;2.17;0.60;;;;;;;;;;5020147;28;20088;-81
2023/12/22 08:10:20;;;;;;;0.60;0.60;;;;;;;;;;5022209;28;20038;-81
2023/12/22 08:12:45;;;;;;;3.03;1.20;;;;;;;;;;5027631;28;20034;-80
2023/12/22 08:15:10;;;;;;;1.10;1.00;;;;;;;;;;5007215;28;20022;-84
2023/12/22 08:17:37;;;;;;;0.60;0.60;;;;;;;;;;5034142;28;20025;-79
2023/12/22 08:20:08;;;;;;;1.85;0.85;;;;;;;;;;5032906;28;20048;-79
2023/12/22 08:22:33;;;;;;;0.60;0.60;;;;;;;;;;5044862;28;20033;-78
2023/12/22 08:24:58;;;;;;;0.65;0.63;;;;;;;;;;5045215;28;20120;-82
2023/12/22 08:27:24;;;;;;;1.75;0.60;;;;;;;;;;5041632;28;20064;-78
2023/12/22 08:29:49;;;;;;;0.75;0.50;;;;;;;;;;5037417;28;20030;-81
2023/12/22 08:32:14;;;;;;;0.80;0.80;;;;;;;;;;5039808;28;20044;-82
2023/12/22 08:34:39;;;;;;;2.53;0.77;;;;;;;;;;5038503;28;20321;-82
2023/12/22 08:37:05;;;;;;;0.70;0.70;;;;;;;;;;5033858;28;20041;-81
2023/12/22 08:39:31;;;;;;;0.65;0.65;;;;;;;;;;5034307;28;20045;-80
2023/12/22 08:41:56;;;;;;;4.15;1.08;;;;;;;;;;5038544;28;20033;-79
2023/12/22 08:44:21;;;;;;;0.90;0.90;;;;;;;;;;5041193;28;20052;-78
2023/12/22 08:46:47;;;;;;;4.10;0.90;;;;;;;;;;5035584;28;20053;-81
2023/12/22 08:49:12;;;;;;;2.35;0.70;;;;;;;;;;5033908;28;20395;-82
2023/12/22 08:51:37;;;;;;;3.33;0.82;;;;;;;;;;5033496;28;20060;-81
2023/12/22 08:54:04;;;;;;;2.33;0.95;;;;;;;;;;5036863;28;20029;-80
2023/12/22 08:56:29;;;;;;;3.97;0.98;;;;;;;;;;5038411;28;20572;-82
2023/12/22 08:58:55;;;;;;;3.20;1.15;;;;;;;;;;5034683;28;20063;-79
2023/12/22 09:01:21;;;;;;;1.75;1.20;;;;;;;;;;5020380;28;20073;-83
2023/12/22 09:03:47;;;;;;;2.95;1.00;;;;;;;;;;5017810;28;20069;-80
2023/12/22 09:06:20;;;;;;;2.58;0.90;;;;;;;;;;5021262;28;20030;-83
2023/12/22 09:08:46;;;;;;;10.95;2.28;;;;;;;;;;5040302;28;20024;-81
2023/12/22 09:11:16;;;;;;;3.40;1.10;;;;;;;;;;5016752;28;20029;-81
2023/12/22 09:13:42;;;;;;;1.05;0.75;;;;;;;;;;5033079;28;20049;-81
2023/12/22 09:16:08;;;;;;;1.75;1.00;;;;;;;;;;5033131;28;20049;-81
2023/12/22 09:18:35;;;;;;;1.35;1.00;;;;;;;;;;5031823;28;20099;-81
2023/12/22 09:21:01;;;;;;;1.88;1.00;;;;;;;;;;5033577;28;20037;-83
2023/12/22 09:23:27;;;;;;;4.75;1.02;;;;;;;;;;5016671;28;20029;-82
2023/12/22 09:25:52;;;;;;;7.53;1.30;;;;;;;;;;5016471;28;20087;-80
2023/12/22 09:28:17;;;;;;;1.25;1.10;;;;;;;;;;5030919;28;20038;-82
2023/12/22 09:30:43;;;;;;;7.30;1.70;;;;;;;;;;5016329;28;20029;-81
2023/12/22 09:33:09;;;;;;;7.70;1.60;;;;;;;;;;5037954;28;20083;-81
2023/12/22 09:35:35;;;;;;;1.67;1.10;;;;;;;;;;5028172;28;20030;-79
2023/12/22 09:38:00;;;;;;;10.73;1.58;;;;;;;;;;5032050;28;20034;-79
2023/12/22 09:40:26;;;;;;;2.83;1.15;;;;;;;;;;5030666;28;20034;-81
2023/12/22 09:42:54;;;;;;;3.50;1.27;;;;;;;;;;5029919;28;20568;-81
2023/12/22 09:45:21;;;;;;;4.55;1.35;;;;;;;;;;5030032;28;20048;-80
2023/12/22 09:47:48;;;;;;;7.45;1.27;;;;;;;;;;5038484;28;20481;-82
2023/12/22 09:50:15;;;;;;;3.53;1.10;;;;;;;;;;5033957;28;20086;-79
2023/12/22 09:52:43;;;;;;;3.55;1.50;;;;;;;;;;5037545;28;20091;-82
2023/12/22 09:55:09;;;;;;;5.80;1.42;;;;;;;;;;5015472;28;20101;-79
2023/12/22 09:57:37;;;;;;;2.78;1.20;;;;;;;;;;5019374;28;20060;-83
2023/12/22 10:00:06;;;;;;;2.00;0.90;;;;;;;;;;5038109;28;20087;-83
2023/12/22 10:02:34;;;;;;;3.70;1.33;;;;;;;;;;5018789;28;20049;-82
2023/12/22 10:04:59;;;;;;;2.67;1.10;;;;;;;;;;5032286;28;20045;-83
2023/12/22 10:07:26;;;;;;;4.03;1.35;;;;;;;;;;5034171;28;20323;-80
2023/12/22 10:09:52;;;;;;;5.20;1.50;;;;;;;;;;5034530;28;20041;-81
2023/12/22 10:12:19;;;;;;;2.88;1.25;;;;;;;;;;5029308;28;20108;-82
2023/12/22 10:14:46;;;;;;;2.95;1.00;;;;;;;;;;5033465;28;20033;-83
2023/12/22 10:17:12;;;;;;;7.05;1.33;;;;;;;;;;5026902;28;20042;-82
2023/12/22 10:19:39;;;;;;;1.27;0.95;;;;;;;;;;5030507;28;20535;-85
2023/12/22 10:22:04;;;;;;;3.33;1.27;;;;;;;;;;5033296;28;20041;-83
2023/12/22 10:24:43;;;;;;;3.05;0.85;;;;;;;;;;5024346;28;20030;-83
2023/12/22 10:27:11;;;;;;;4.82;1.50;;;;;;;;;;5028034;28;20040;-81
2023/12/22 10:29:37;;;;;;;4.00;1.33;;;;;;;;;;5032866;28;20037;-83
2023/12/22 10:32:03;;;;;;;5.28;1.30;;;;;;;;;;5011101;28;20042;-83
2023/12/22 10:34:29;;;;;;;3.28;1.20;;;;;;;;;;5030041;28;20321;-82
2023/12/22 10:36:55;;;;;;;4.60;1.00;;;;;;;;;;5031681;28;20547;-82
2023/12/22 10:39:23;;;;;;;5.50;1.63;;;;;;;;;;5018079;28;20092;-84
2023/12/22 10:41:51;;;;;;;1.92;0.98;;;;;;;;;;5035723;28;20017;-83
2023/12/22 10:44:17;;;;;;;4.43;1.20;;;;;;;;;;5023746;28;20046;-85
2023/12/22 10:46:43;;;;;;;1.10;0.93;;;;;;;;;;5020050;28;20468;-84
2023/12/22 10:49:08;;;;;;;2.38;1.33;;;;;;;;;;5035284;28;20068;-83
2023/12/22 10:51:33;;;;;;;2.83;1.05;;;;;;;;;;5033852;28;20324;-82
2023/12/22 10:53:59;;;;;;;5.95;1.58;;;;;;;;;;5037476;28;20029;-82
2023/12/22 10:56:28;;;;;;;10.98;1.55;;;;;;;;;;5020562;28;20064;-81
2023/12/22 10:58:53;;;;;;;5.35;1.50;;;;;;;;;;5033121;28;20081;-84
2023/12/22 11:01:20;;;;;;;4.13;1.25;;;;;;;;;;5036936;28;20046;-83
2023/12/22 11:03:50;;;;;;;3.20;1.10;;;;;;;;;;5014748;28;20120;-82
2023/12/22 11:06:16;;;;;;;2.50;1.05;;;;;;;;;;5036276;28;20061;-83
2023/12/22 11:08:43;;;;;;;5.25;1.40;;;;;;;;;;5035495;28;20079;-84
2023/12/22 11:11:29;;;;;;;4.68;1.42;;;;;;;;;;5014955;28;20133;-81
2023/12/22 11:13:59;;;;;;;1.90;1.00;;;;;;;;;;5026353;28;20033;-83
2023/12/22 11:16:25;;;;;;;6.55;1.67;;;;;;;;;;5041256;28;20509;-84
2023/12/22 11:18:54;;;;;;;7.05;1.50;;;;;;;;;;5031655;28;20200;-84
2023/12/22 11:21:20;;;;;;;8.10;1.60;;;;;;;;;;5029059;28;20028;-82
2023/12/22 11:23:47;;;;;;;6.80;1.50;;;;;;;;;;5013298;28;20029;-83
2023/12/22 11:26:14;;;;;;;3.17;1.10;;;;;;;;;;5031202;28;20049;-84
2023/12/22 11:28:41;;;;;;;4.97;1.10;;;;;;;;;;5041149;28;20065;-82
2023/12/22 11:31:09;;;;;;;3.67;1.55;;;;;;;;;;5020968;28;20363;-83
2023/12/22 11:33:37;;;;;;;7.32;1.63;;;;;;;;;;5043319;28;20033;-83
2023/12/22 11:36:04;;;;;;;5.00;1.50;;;;;;;;;;5020571;28;20076;-83
2023/12/22 11:38:29;;;;;;;3.90;1.30;;;;;;;;;;5031513;28;20037;-84
2023/12/22 11:40:54;;;;;;;4.45;1.60;;;;;;;;;;5029812;28;20408;-85
2023/12/22 11:43:21;;;;;;;3.83;1.17;;;;;;;;;;5031515;28;20046;-83
2023/12/22 11:45:49;;;;;;;4.38;1.10;;;;;;;;;;5031447;28;20033;-83
2023/12/22 11:48:15;;;;;;;8.70;1.90;;;;;;;;;;5035491;28;20081;-84
2023/12/22 11:50:42;;;;;;;8.52;1.63;;;;;;;;;;5022091;28;20037;-83
2023/12/22 11:53:17;;;;;;;4.07;1.10;;;;;;;;;;5013013;28;20088;-84
2023/12/22 11:56:05;;;;;;;1.17;0.95;;;;;;;;;;5032259;28;20036;-83
2023/12/22 11:58:50;;;;;;;1.80;1.45;;;;;;;;;;5030303;28;20092;-83
2023/12/22 12:01:17;;;;;;;8.35;1.52;;;;;;;;;;5038324;28;20057;-82
2023/12/22 12:03:58;;;;;;;6.82;1.35;;;;;;;;;;5029239;28;20405;-83
2023/12/22 12:06:27;;;;;;;2.40;1.00;;;;;;;;;;5030740;28;20120;-83
2023/12/22 12:08:56;;;;;;;2.53;1.00;;;;;;;;;;5027146;28;20021;-83
2023/12/22 12:11:22;;;;;;;7.57;1.48;;;;;;;;;;5018664;28;20041;-83
2023/12/22 12:13:49;;;;;;;7.03;1.63;;;;;;;;;;5028964;28;20041;-84
2023/12/22 12:16:18;;;;;;;5.82;1.48;;;;;;;;;;5035445;28;20029;-84
2023/12/22 12:18:44;;;;;;;2.15;1.02;;;;;;;;;;5027234;28;20029;-83
2023/12/22 12:21:11;;;;;;;3.33;1.05;;;;;;;;;;5026296;28;20048;-84
2023/12/22 12:23:37;;;;;;;3.92;1.30;;;;;;;;;;5034976;28;20071;-83
2023/12/22 12:26:03;;;;;;;3.40;0.82;;;;;;;;;;5030368;28;20033;-82
2023/12/22 12:28:30;;;;;;;5.38;1.13;;;;;;;;;;5037429;28;20377;-82
2023/12/22 12:31:00;;;;;;;2.35;1.10;;;;;;;;;;5000219;28;20030;-83
2023/12/22 12:33:26;;;;;;;3.83;1.10;;;;;;;;;;5033345;28;20443;-83
2023/12/22 12:35:59;;;;;;;3.63;1.10;;;;;;;;;;5037555;28;20517;-84
2023/12/22 12:38:53;;;;;;;4.72;1.38;;;;;;;;;;5031242;28;20041;-83
2023/12/22 12:41:28;;;;;;;4.07;1.10;;;;;;;;;;5011296;28;20087;-83
2023/12/22 12:43:56;;;;;;;2.35;1.00;;;;;;;;;;5029389;28;20040;-83
2023/12/22 12:46:21;;;;;;;3.05;1.48;;;;;;;;;;5012476;28;20040;-83
2023/12/22 12:48:46;;;;;;;4.50;1.33;;;;;;;;;;5017794;28;20026;-84
2023/12/22 12:51:12;;;;;;;4.85;1.05;;;;;;;;;;5030893;28;20059;-81
2023/12/22 12:53:37;;;;;;;5.13;1.27;;;;;;;;;;5037577;28;20067;-81
2023/12/22 12:56:04;;;;;;;1.10;1.00;;;;;;;;;;5020824;28;20041;-86
2023/12/22 12:58:31;;;;;;;5.15;1.25;;;;;;;;;;5018910;28;20117;-85
2023/12/22 13:01:13;;;;;;;2.22;0.95;;;;;;;;;;5035465;28;20030;-81
2023/12/22 13:03:54;;;;;;;1.67;0.75;;;;;;;;;;5024268;28;20037;-81
2023/12/22 13:06:20;;;;;;;5.90;1.02;;;;;;;;;;5025275;28;20038;-81
2023/12/22 13:08:49;;;;;;;3.80;0.80;;;;;;;;;;5026392;28;20076;-84
2023/12/22 13:11:16;;;;;;;2.47;1.02;;;;;;;;;;5030282;28;20041;-82
2023/12/22 13:13:42;;;;;;;2.35;1.00;;;;;;;;;;5035620;28;20044;-83
2023/12/22 13:16:08;;;;;;;2.17;0.90;;;;;;;;;;5036575;28;20087;-84
2023/12/22 13:18:33;;;;;;;2.17;0.80;;;;;;;;;;5030361;28;20038;-81
2023/12/22 13:20:59;;;;;;;3.30;0.52;;;;;;;;;;5037070;28;20162;-84
2023/12/22 13:23:24;;;;;;;0.73;0.63;;;;;;;;;;5036091;28;20042;-82
2023/12/22 13:25:50;;;;;;;0.70;0.68;;;;;;;;;;5017588;28;20113;-81
2023/12/22 13:28:25;;;;;;;2.55;0.47;;;;;;;;;;5016721;28;20041;-82
2023/12/22 13:30:50;;;;;;;1.15;0.60;;;;;;;;;;5019358;28;20034;-83
2023/12/22 13:33:16;;;;;;;4.35;0.93;;;;;;;;;;5036304;28;20049;-82
2023/12/22 13:35:41;;;;;;;1.08;0.70;;;;;;;;;;5018974;28;20017;-83
2023/12/22 13:38:07;;;;;;;0.63;0.60;;;;;;;;;;5036159;28;20397;-83
2023/12/22 13:40:33;;;;;;;1.98;0.73;;;;;;;;;;5036279;28;20044;-81
2023/12/22 13:42:59;;;;;;;2.05;1.02;;;;;;;;;;5015288;28;20022;-83
2023/12/22 13:45:25;;;;;;;1.48;0.85;;;;;;;;;;5004479;28;20049;-83
2023/12/22 13:47:51;;;;;;;1.90;0.60;;;;;;;;;;5018405;28;20168;-83
2023/12/22 13:50:16;;;;;;;1.00;0.63;;;;;;;;;;5035617;28;20088;-82
2023/12/22 13:52:45;;;;;;;0.50;0.50;;;;;;;;;;5017942;28;20493;-82
2023/12/22 13:55:12;;;;;;;1.95;0.50;;;;;;;;;;5023914;28;20826;-82
2023/12/22 13:57:37;;;;;;;0.55;0.55;;;;;;;;;;5022021;28;20033;-81
2023/12/22 14:00:26;;;;;;;0.60;0.60;;;;;;;;;;5035836;28;20037;-80
2023/12/22 14:02:53;;;;;;;3.92;0.50;;;;;;;;;;5023207;28;20068;-81
2023/12/22 14:05:18;;;;;;;0.47;0.47;;;;;;;;;;5017862;28;20124;-81
2023/12/22 14:07:44;;;;;;;0.40;0.40;;;;;;;;;;5034086;28;20493;-83
2023/12/22 14:10:10;;;;;;;0.95;0.50;;;;;;;;;;5016353;28;20037;-81
2023/12/22 14:12:40;;;;;;;0.75;0.40;;;;;;;;;;5016233;28;20139;-80
2023/12/22 14:15:09;;;;;;;0.20;0.20;;;;;;;;;;5023789;28;20022;-81
2023/12/22 14:17:35;;;;;;;0.80;0.40;;;;;;;;;;5032197;28;20025;-84
2023/12/22 14:20:01;;;;;;;0.38;0.38;;;;;;;;;;5026920;28;20718;-83
2023/12/22 14:22:26;;;;;;;0.40;0.40;;;;;;;;;;5035878;28;20049;-82
2023/12/22 14:24:52;;;;;;;0.35;0.35;;;;;;;;;;5035540;28;20026;-82
2023/12/22 14:27:20;;;;;;;0.40;0.40;;;;;;;;;;5035312;28;20478;-82
2023/12/22 14:29:45;;;;;;;0.40;0.40;;;;;;;;;;5036409;28;20076;-83
2023/12/22 14:32:12;;;;;;;0.52;0.52;;;;;;;;;;5019226;28;20437;-80
2023/12/22 14:34:37;;;;;;;0.60;0.35;;;;;;;;;;5015665;28;20565;-83
2023/12/22 14:37:03;;;;;;;0.40;0.40;;;;;;;;;;5020900;28;20076;-80
2023/12/22 14:39:28;;;;;;;0.30;0.30;;;;;;;;;;5035951;28;20025;-83